Time;durP1;ratioP1;P1;durP2;ratioP2;P2;SDS_P1;SDS_P2;PMS_P1;PMS_P2;Temp;Humidity;BMP_temperature;BMP_pressure;BME280_temperature;BME280_humidity;BME280_pressure;Samples;Min_cycle;Max_cycle;Signal;HPM_P1;HPM_P2
2021/09/04 00:00:50;;;;;;;1.48;1.25;;;8.00;99.90;;;;;;4973074;28;20162;-68
2021/09/04 00:03:18;;;;;;;1.70;0.88;;;7.90;99.90;;;;;;4972888;28;20053;-71
2021/09/04 00:05:45;;;;;;;1.83;0.90;;;7.90;99.90;;;;;;4971347;28;20043;-70
2021/09/04 00:08:12;;;;;;;1.08;0.68;;;7.90;99.90;;;;;;4973331;28;20066;-67
2021/09/04 00:10:39;;;;;;;0.77;0.50;;;7.80;99.90;;;;;;4972937;28;20054;-65
2021/09/04 00:13:07;;;;;;;1.20;0.73;;;7.90;99.90;;;;;;4972993;28;20523;-64
2021/09/04 00:15:35;;;;;;;1.38;0.60;;;7.80;99.90;;;;;;4972883;28;20090;-71
2021/09/04 00:18:02;;;;;;;1.05;0.60;;;8.10;99.90;;;;;;4971520;28;20366;-67
2021/09/04 00:20:29;;;;;;;1.23;0.60;;;8.20;99.90;;;;;;4972876;28;20078;-67
2021/09/04 00:22:57;;;;;;;1.27;0.70;;;8.60;99.90;;;;;;4972609;28;20051;-66
2021/09/04 00:25:24;;;;;;;1.38;0.70;;;9.20;99.90;;;;;;4972729;28;20047;-65
2021/09/04 00:27:51;;;;;;;1.50;0.57;;;9.50;99.90;;;;;;4971041;28;20133;-68
2021/09/04 00:30:18;;;;;;;1.60;0.85;;;9.70;99.90;;;;;;4972517;28;20555;-68
2021/09/04 00:32:45;;;;;;;3.00;0.40;;;9.70;99.90;;;;;;4972497;28;20047;-68
2021/09/04 00:35:12;;;;;;;4.43;0.40;;;9.80;99.90;;;;;;4972716;28;20047;-65
2021/09/04 00:37:40;;;;;;;1.92;0.30;;;9.80;99.90;;;;;;4972697;28;20081;-66
2021/09/04 00:40:08;;;;;;;1.60;0.80;;;9.80;99.90;;;;;;4971129;28;20126;-68
2021/09/04 00:42:35;;;;;;;0.85;0.40;;;9.80;99.90;;;;;;4972607;28;20101;-66
2021/09/04 00:45:03;;;;;;;0.85;0.60;;;9.80;99.90;;;;;;4972315;28;20074;-70
2021/09/04 00:47:30;;;;;;;0.80;0.40;;;9.80;99.90;;;;;;4972282;28;20054;-66
2021/09/04 00:49:57;;;;;;;1.05;0.40;;;9.70;99.90;;;;;;4970808;28;20086;-64
2021/09/04 00:52:24;;;;;;;0.75;0.40;;;9.60;99.90;;;;;;4971948;28;20066;-71
2021/09/04 00:54:51;;;;;;;1.05;0.85;;;9.50;99.90;;;;;;4972250;28;20514;-68
2021/09/04 00:57:19;;;;;;;1.65;0.57;;;9.40;99.90;;;;;;4972421;28;20051;-68
2021/09/04 00:59:46;;;;;;;0.80;0.38;;;9.40;99.90;;;;;;4970658;28;20138;-67
2021/09/04 01:02:16;;;;;;;1.25;0.80;;;9.30;99.90;;;;;;4971904;28;20050;-71
2021/09/04 01:04:44;;;;;;;1.10;0.80;;;9.20;99.90;;;;;;4972020;28;20054;-68
2021/09/04 01:07:12;;;;;;;2.17;0.55;;;9.10;99.90;;;;;;4972379;28;20121;-66
2021/09/04 01:09:40;;;;;;;0.70;0.70;;;9.10;99.90;;;;;;4972085;28;20054;-68
2021/09/04 01:12:08;;;;;;;1.17;0.63;;;9.00;99.90;;;;;;4970298;28;20050;-71
2021/09/04 01:14:36;;;;;;;1.52;0.60;;;9.00;99.90;;;;;;4971992;28;20126;-70
2021/09/04 01:17:04;;;;;;;1.30;0.50;;;8.90;99.90;;;;;;4971742;28;20085;-68
2021/09/04 01:19:31;;;;;;;1.52;0.70;;;8.90;99.90;;;;;;4971989;28;20432;-70
2021/09/04 01:21:58;;;;;;;2.17;0.70;;;8.80;99.90;;;;;;4970296;28;20439;-69
2021/09/04 01:24:25;;;;;;;1.27;0.70;;;8.80;99.90;;;;;;4971769;28;20042;-70
2021/09/04 01:26:53;;;;;;;0.60;0.40;;;8.70;99.90;;;;;;4971617;28;20173;-68
2021/09/04 01:29:20;;;;;;;1.27;0.70;;;8.60;99.90;;;;;;4972046;28;20465;-66
2021/09/04 01:31:47;;;;;;;1.17;0.70;;;8.60;99.90;;;;;;4969877;28;20047;-67
2021/09/04 01:34:14;;;;;;;1.75;0.32;;;8.50;99.90;;;;;;4971678;28;20105;-70
2021/09/04 01:36:40;;;;;;;0.98;0.60;;;8.40;99.90;;;;;;4971628;28;20066;-72
2021/09/04 01:39:09;;;;;;;0.63;0.47;;;8.30;99.90;;;;;;4971083;28;20572;-68
2021/09/04 01:41:42;;;;;;;0.55;0.50;;;8.30;99.90;;;;;;4971382;28;20051;-67
2021/09/04 01:44:09;;;;;;;3.65;1.27;;;8.20;99.90;;;;;;4950980;28;20077;-68
2021/09/04 01:46:36;;;;;;;0.70;0.70;;;8.10;99.90;;;;;;4952131;28;20043;-69
2021/09/04 01:49:03;;;;;;;0.68;0.50;;;8.00;99.90;;;;;;4952447;28;20089;-65
2021/09/04 01:51:30;;;;;;;0.80;0.80;;;7.90;99.90;;;;;;4951895;28;20083;-66
2021/09/04 01:53:58;;;;;;;1.27;0.82;;;7.90;99.90;;;;;;4951098;28;20079;-67
2021/09/04 01:56:25;;;;;;;2.40;1.05;;;7.90;99.90;;;;;;4952268;28;20043;-71
2021/09/04 01:58:52;;;;;;;1.92;1.30;;;7.80;99.90;;;;;;4951866;28;20074;-65
2021/09/04 02:01:19;;;;;;;0.75;0.75;;;7.80;99.90;;;;;;4952251;28;20123;-68
2021/09/04 02:03:47;;;;;;;1.25;0.75;;;7.80;99.90;;;;;;4950221;28;20083;-66
2021/09/04 02:06:14;;;;;;;6.18;1.40;;;7.80;99.90;;;;;;4951834;28;20071;-70
2021/09/04 02:08:41;;;;;;;1.25;0.93;;;7.80;99.90;;;;;;4951876;28;20048;-67
2021/09/04 02:11:08;;;;;;;1.77;0.82;;;7.70;99.90;;;;;;4951956;28;20454;-71
2021/09/04 02:13:34;;;;;;;1.42;0.88;;;7.70;99.90;;;;;;4951742;28;20051;-69
2021/09/04 02:16:01;;;;;;;2.00;1.02;;;7.60;99.90;;;;;;4950056;28;20127;-67
2021/09/04 02:18:33;;;;;;;1.38;1.00;;;7.60;99.90;;;;;;4951967;28;20047;-69
2021/09/04 02:21:01;;;;;;;2.95;1.10;;;7.50;99.90;;;;;;4951872;28;20560;-66
2021/09/04 02:23:28;;;;;;;2.03;1.05;;;7.50;99.90;;;;;;4951851;28;20059;-70
2021/09/04 02:25:56;;;;;;;2.20;1.80;;;7.40;99.90;;;;;;4949967;28;20075;-68
2021/09/04 02:28:23;;;;;;;1.00;0.88;;;7.40;99.90;;;;;;4951041;28;20047;-66
2021/09/04 02:30:50;;;;;;;1.58;0.90;;;7.40;99.90;;;;;;4951577;28;20134;-68
2021/09/04 02:33:18;;;;;;;0.90;0.80;;;7.30;99.90;;;;;;4951156;28;20054;-68
2021/09/04 02:35:45;;;;;;;1.00;0.90;;;7.30;99.90;;;;;;4949422;28;20374;-71
2021/09/04 02:38:12;;;;;;;1.58;1.27;;;7.30;99.90;;;;;;4954134;28;20412;-68
2021/09/04 02:40:41;;;;;;;3.35;0.85;;;7.30;99.90;;;;;;4970414;28;20064;-68
2021/09/04 02:43:08;;;;;;;1.77;1.17;;;7.30;99.90;;;;;;4970700;28;20061;-67
2021/09/04 02:45:37;;;;;;;1.70;0.93;;;7.30;99.90;;;;;;4970698;28;20050;-67
2021/09/04 02:48:05;;;;;;;1.30;0.70;;;7.30;99.90;;;;;;4969425;28;20129;-66
2021/09/04 02:50:32;;;;;;;1.52;0.95;;;7.20;99.90;;;;;;4970943;28;20047;-64
2021/09/04 02:52:59;;;;;;;2.40;1.95;;;7.20;99.90;;;;;;4972876;28;20082;-67
2021/09/04 02:55:26;;;;;;;2.20;1.75;;;7.20;99.90;;;;;;4974275;28;20579;-65
2021/09/04 02:57:53;;;;;;;1.35;1.13;;;7.20;99.90;;;;;;4972772;28;20106;-67
2021/09/04 03:00:21;;;;;;;1.20;0.85;;;7.10;99.90;;;;;;4974179;28;20069;-68
2021/09/04 03:02:48;;;;;;;0.90;0.85;;;7.10;99.90;;;;;;4973968;28;20057;-67
2021/09/04 03:05:18;;;;;;;3.50;0.93;;;7.10;99.90;;;;;;4974005;28;20043;-72
2021/09/04 03:07:45;;;;;;;2.28;1.15;;;7.10;99.90;;;;;;4972798;28;20133;-69
2021/09/04 03:10:12;;;;;;;2.88;1.85;;;7.10;99.90;;;;;;4974043;28;20085;-69
2021/09/04 03:12:39;;;;;;;0.90;0.88;;;7.10;99.90;;;;;;4973892;28;20047;-71
2021/09/04 03:15:07;;;;;;;0.82;0.60;;;7.10;99.90;;;;;;4974484;28;20043;-70
2021/09/04 03:17:34;;;;;;;1.30;1.15;;;7.10;99.90;;;;;;4974346;28;20134;-72
2021/09/04 03:20:04;;;;;;;2.03;0.82;;;7.10;99.90;;;;;;4987722;28;20450;-68
2021/09/04 03:22:31;;;;;;;1.45;0.70;;;7.10;99.90;;;;;;4973760;28;20105;-65
2021/09/04 03:24:58;;;;;;;1.65;0.60;;;7.10;99.90;;;;;;4973898;28;20072;-68
2021/09/04 03:27:27;;;;;;;1.60;0.90;;;7.10;99.90;;;;;;4974009;28;20117;-69
2021/09/04 03:29:54;;;;;;;2.63;1.17;;;7.00;99.90;;;;;;4972377;28;20130;-65
2021/09/04 03:32:21;;;;;;;1.35;0.73;;;7.00;99.90;;;;;;4973907;28;20354;-67
2021/09/04 03:34:49;;;;;;;1.02;0.70;;;6.90;99.90;;;;;;4973680;28;20058;-66
2021/09/04 03:37:17;;;;;;;0.75;0.63;;;6.90;99.90;;;;;;4973743;28;20078;-69
2021/09/04 03:39:45;;;;;;;0.90;0.60;;;6.80;99.90;;;;;;4972240;28;20102;-66
2021/09/04 03:42:12;;;;;;;1.25;0.73;;;6.90;99.90;;;;;;4974286;28;20069;-66
2021/09/04 03:44:40;;;;;;;1.38;0.90;;;6.80;99.90;;;;;;4973361;28;20432;-64
2021/09/04 03:47:07;;;;;;;0.55;0.40;;;6.80;99.90;;;;;;4973462;28;20066;-67
2021/09/04 03:49:35;;;;;;;1.65;1.23;;;6.80;99.90;;;;;;4973814;28;20047;-67
2021/09/04 03:52:04;;;;;;;0.80;0.80;;;6.80;99.90;;;;;;4972053;28;20079;-66
2021/09/04 03:54:32;;;;;;;1.45;0.90;;;6.80;99.90;;;;;;4973567;28;20478;-66
2021/09/04 03:56:59;;;;;;;1.55;0.95;;;6.80;99.90;;;;;;4973106;28;20460;-67
2021/09/04 03:59:27;;;;;;;2.72;1.17;;;6.70;99.90;;;;;;4973105;28;20481;-70
2021/09/04 04:01:54;;;;;;;1.45;0.75;;;6.70;99.90;;;;;;4971674;28;20454;-65
2021/09/04 04:04:25;;;;;;;1.48;0.95;;;6.70;99.90;;;;;;4972636;28;20047;-69
2021/09/04 04:06:52;;;;;;;0.70;0.65;;;6.80;99.90;;;;;;4973208;28;20088;-69
2021/09/04 04:09:19;;;;;;;1.35;0.90;;;6.80;99.90;;;;;;4972591;28;20053;-67
2021/09/04 04:11:46;;;;;;;1.63;1.00;;;6.80;99.90;;;;;;4971254;28;20137;-70
2021/09/04 04:14:13;;;;;;;0.93;0.82;;;6.80;99.90;;;;;;4972563;28;20046;-71
2021/09/04 04:16:40;;;;;;;1.70;0.88;;;6.90;99.90;;;;;;4972889;28;20067;-71
2021/09/04 04:19:07;;;;;;;4.13;0.95;;;6.90;99.90;;;;;;4972478;28;20070;-65
2021/09/04 04:21:36;;;;;;;3.75;1.23;;;7.00;99.90;;;;;;4972710;28;20134;-68
2021/09/04 04:24:04;;;;;;;1.95;0.70;;;7.00;99.90;;;;;;4971055;28;20062;-70
2021/09/04 04:26:30;;;;;;;1.90;0.90;;;7.10;99.90;;;;;;4972805;28;20349;-72
2021/09/04 04:28:57;;;;;;;2.03;0.95;;;7.10;99.90;;;;;;4972661;28;20109;-66
2021/09/04 04:31:24;;;;;;;0.93;0.70;;;7.20;99.90;;;;;;4972803;28;20075;-66
2021/09/04 04:33:52;;;;;;;2.70;0.75;;;7.30;99.90;;;;;;4971237;28;20055;-69
2021/09/04 04:36:19;;;;;;;2.72;1.70;;;7.50;99.90;;;;;;4972494;28;20498;-68
2021/09/04 04:38:46;;;;;;;2.78;0.80;;;7.70;99.90;;;;;;4972512;28;20074;-70
2021/09/04 04:41:13;;;;;;;1.25;0.55;;;8.00;99.90;;;;;;4972864;28;20050;-69
2021/09/04 04:43:40;;;;;;;1.77;0.43;;;8.40;99.90;;;;;;4972553;28;20050;-65
2021/09/04 04:46:07;;;;;;;1.13;0.68;;;8.70;99.90;;;;;;4970661;28;20122;-67
2021/09/04 04:48:38;;;;;;;1.02;0.80;;;9.00;99.90;;;;;;4972141;28;20604;-64
2021/09/04 04:51:07;;;;;;;0.95;0.43;;;9.40;99.90;;;;;;4972577;28;20047;-66
2021/09/04 04:53:34;;;;;;;1.10;0.60;;;9.60;99.90;;;;;;4972504;28;20406;-69
2021/09/04 04:56:02;;;;;;;3.88;0.55;;;9.80;99.90;;;;;;4970696;28;20054;-69
2021/09/04 04:58:29;;;;;;;0.52;0.35;;;10.00;99.90;;;;;;4972260;28;20054;-72
2021/09/04 05:00:57;;;;;;;1.38;0.68;;;10.10;99.90;;;;;;4972290;28;20070;-64
2021/09/04 05:03:25;;;;;;;1.45;0.65;;;10.30;99.90;;;;;;4972092;28;20069;-69
2021/09/04 05:05:53;;;;;;;1.60;0.80;;;10.50;99.90;;;;;;4970627;28;20043;-70
2021/09/04 05:08:21;;;;;;;0.85;0.50;;;10.60;99.90;;;;;;4971876;28;20128;-71
2021/09/04 05:10:49;;;;;;;1.70;0.63;;;10.70;99.90;;;;;;4972475;28;20042;-69
2021/09/04 05:13:16;;;;;;;1.60;0.77;;;10.90;99.90;;;;;;4972146;28;20050;-69
2021/09/04 05:15:45;;;;;;;2.40;0.85;;;11.00;99.90;;;;;;4969237;28;20477;-70
2021/09/04 05:18:12;;;;;;;0.95;0.60;;;11.00;99.90;;;;;;4971889;28;20369;-67
2021/09/04 05:20:42;;;;;;;2.42;1.45;;;11.10;99.90;;;;;;4971942;28;20053;-70
2021/09/04 05:23:11;;;;;;;0.68;0.30;;;11.10;99.90;;;;;;4971430;28;20523;-70
2021/09/04 05:25:39;;;;;;;1.70;0.60;;;11.20;99.90;;;;;;4971599;28;20046;-66
2021/09/04 05:28:06;;;;;;;2.47;0.90;;;11.30;99.90;;;;;;4970090;28;20051;-68
2021/09/04 05:30:33;;;;;;;9.15;1.23;;;11.40;99.90;;;;;;4971870;28;20054;-71
2021/09/04 05:33:00;;;;;;;0.93;0.40;;;11.50;99.90;;;;;;4971677;28;20074;-70
2021/09/04 05:35:27;;;;;;;2.38;1.85;;;11.60;99.90;;;;;;4971904;28;20062;-68
2021/09/04 05:37:54;;;;;;;1.00;0.40;;;11.70;99.90;;;;;;4969881;28;20074;-69
2021/09/04 05:40:21;;;;;;;1.75;0.63;;;11.70;99.90;;;;;;4970714;28;20141;-69
2021/09/04 05:42:48;;;;;;;2.22;0.65;;;11.70;99.90;;;;;;4971666;28;20047;-68
2021/09/04 05:45:15;;;;;;;1.85;0.82;;;11.80;99.90;;;;;;4971390;28;20528;-67
2021/09/04 05:47:41;;;;;;;1.45;0.68;;;11.90;99.90;;;;;;4971756;28;20168;-67
2021/09/04 05:50:09;;;;;;;1.60;0.57;;;11.90;99.90;;;;;;4969534;28;20079;-70
2021/09/04 05:52:36;;;;;;;1.00;0.52;;;12.10;99.90;;;;;;4971325;28;20074;-71
2021/09/04 05:55:03;;;;;;;1.27;0.50;;;12.10;99.90;;;;;;4971028;28;20094;-72
2021/09/04 05:57:31;;;;;;;0.85;0.50;;;12.20;99.90;;;;;;4971574;28;20053;-66
2021/09/04 05:59:57;;;;;;;2.63;0.98;;;12.20;99.90;;;;;;4969839;28;20077;-65
2021/09/04 06:02:24;;;;;;;2.50;0.55;;;12.20;99.90;;;;;;4971062;28;20066;-70
2021/09/04 06:04:51;;;;;;;0.93;0.30;;;12.20;99.90;;;;;;4971431;28;20089;-68
2021/09/04 06:07:18;;;;;;;0.88;0.40;;;12.30;99.90;;;;;;4970746;28;20047;-68
2021/09/04 06:09:45;;;;;;;0.45;0.32;;;12.30;99.90;;;;;;4970145;28;20134;-68
2021/09/04 06:12:12;;;;;;;1.42;0.32;;;12.40;99.90;;;;;;4971194;28;20082;-65
2021/09/04 06:14:39;;;;;;;1.77;1.58;;;12.40;99.90;;;;;;4971644;28;20039;-69
2021/09/04 06:17:06;;;;;;;5.50;0.45;;;12.40;99.90;;;;;;4971329;28;20055;-71
2021/09/04 06:19:33;;;;;;;1.10;0.50;;;12.40;99.90;;;;;;4971581;28;20051;-64
2021/09/04 06:22:00;;;;;;;1.30;0.50;;;12.40;99.90;;;;;;4970060;28;20051;-65
2021/09/04 06:24:27;;;;;;;0.98;0.55;;;12.40;99.90;;;;;;4971385;28;20478;-68
2021/09/04 06:26:54;;;;;;;1.08;0.63;;;12.40;99.90;;;;;;4972980;28;20093;-65
2021/09/04 06:29:21;;;;;;;0.65;0.35;;;12.50;99.90;;;;;;4974800;28;20074;-64
2021/09/04 06:31:47;;;;;;;0.93;0.47;;;12.50;99.90;;;;;;4972766;28;20135;-67
2021/09/04 06:34:14;;;;;;;0.85;0.55;;;12.60;99.90;;;;;;4974204;28;20465;-70
2021/09/04 06:36:41;;;;;;;0.40;0.40;;;12.60;99.90;;;;;;4973904;28;20082;-67
2021/09/04 06:39:08;;;;;;;0.73;0.38;;;12.60;99.90;;;;;;4974388;28;20071;-65
2021/09/04 06:41:35;;;;;;;2.05;0.38;;;12.70;99.90;;;;;;4974511;28;20055;-65
2021/09/04 06:44:02;;;;;;;1.50;0.80;;;12.60;99.90;;;;;;4972799;28;20043;-67
2021/09/04 06:46:32;;;;;;;3.03;0.90;;;12.70;99.90;;;;;;4974274;28;20496;-66
2021/09/04 06:48:59;;;;;;;;;;;12.70;99.90;;;;;;4974572;28;20067;-70
2021/09/04 06:51:26;;;;;;;0.88;0.40;;;12.80;99.90;;;;;;4974645;28;19922;-64
2021/09/04 06:53:54;;;;;;;2.83;0.30;;;12.80;99.90;;;;;;4972889;28;20067;-67
2021/09/04 06:56:20;;;;;;;1.70;0.35;;;12.80;99.90;;;;;;4974113;28;20047;-65
2021/09/04 06:58:47;;;;;;;0.77;0.52;;;12.90;99.90;;;;;;4974379;28;20481;-65
2021/09/04 07:01:14;;;;;;;0.95;0.38;;;12.90;99.90;;;;;;4973945;28;20070;-66
2021/09/04 07:03:42;;;;;;;0.25;0.25;;;12.90;99.90;;;;;;4974030;28;20481;-64
2021/09/04 07:06:09;;;;;;;0.28;0.28;;;12.90;99.90;;;;;;4972865;28;20070;-69
2021/09/04 07:08:36;;;;;;;1.17;0.60;;;13.00;99.90;;;;;;4974440;28;20117;-65
2021/09/04 07:11:03;;;;;;;2.13;0.90;;;13.00;99.90;;;;;;4973861;28;20078;-65
2021/09/04 07:13:30;;;;;;;0.47;0.30;;;13.00;99.90;;;;;;4974181;28;20093;-68
2021/09/04 07:15:57;;;;;;;1.85;0.60;;;13.10;99.90;;;;;;4972474;28;20121;-65
2021/09/04 07:18:24;;;;;;;0.90;0.47;;;13.10;99.90;;;;;;4974286;28;20520;-70
2021/09/04 07:20:52;;;;;;;1.08;0.40;;;13.10;99.90;;;;;;4974194;28;20085;-66
2021/09/04 07:23:19;;;;;;;0.60;0.40;;;13.10;99.90;;;;;;4973906;28;20074;-68
2021/09/04 07:25:46;;;;;;;0.50;0.38;;;13.10;99.90;;;;;;4972522;28;20051;-67
2021/09/04 07:28:13;;;;;;;0.88;0.43;;;13.20;99.90;;;;;;4973827;28;20066;-66
2021/09/04 07:30:40;;;;;;;1.20;0.35;;;13.20;99.90;;;;;;4973795;28;20133;-68
2021/09/04 07:33:07;;;;;;;1.85;0.40;;;13.20;99.90;;;;;;4973840;28;20059;-68
2021/09/04 07:35:34;;;;;;;0.50;0.35;;;13.20;99.90;;;;;;4973774;28;20441;-66
2021/09/04 07:38:01;;;;;;;2.42;0.60;;;13.20;99.90;;;;;;4971244;28;20059;-68
2021/09/04 07:40:28;;;;;;;0.25;0.20;;;13.30;99.90;;;;;;4973725;28;20047;-67
2021/09/04 07:42:55;;;;;;;2.13;0.57;;;13.30;99.90;;;;;;4973575;28;20054;-65
2021/09/04 07:45:22;;;;;;;0.55;0.55;;;13.40;99.90;;;;;;4973652;28;20074;-65
2021/09/04 07:47:49;;;;;;;1.75;0.43;;;13.40;99.90;;;;;;4971873;28;20074;-71
2021/09/04 07:50:16;;;;;;;1.60;0.60;;;13.50;99.90;;;;;;4973243;28;20496;-67
2021/09/04 07:52:43;;;;;;;0.95;0.55;;;13.40;99.90;;;;;;4973426;28;20066;-70
2021/09/04 07:55:10;;;;;;;4.25;0.70;;;13.50;99.90;;;;;;4972911;28;20055;-68
2021/09/04 07:57:37;;;;;;;0.82;0.32;;;13.50;99.90;;;;;;4973533;28;20074;-70
2021/09/04 08:00:04;;;;;;;0.95;0.50;;;13.50;99.90;;;;;;4971524;28;20047;-71
2021/09/04 08:02:38;;;;;;;0.77;0.50;;;13.50;99.90;;;;;;4972662;28;20062;-66
2021/09/04 08:05:06;;;;;;;0.50;0.32;;;13.60;99.90;;;;;;4972855;28;20058;-67
2021/09/04 08:07:33;;;;;;;0.73;0.30;;;13.50;99.90;;;;;;4972762;28;20050;-70
2021/09/04 08:10:00;;;;;;;2.58;0.43;;;13.50;99.90;;;;;;4971490;28;20057;-70
2021/09/04 08:12:28;;;;;;;1.13;0.50;;;13.50;99.90;;;;;;4972780;28;20397;-66
2021/09/04 08:14:55;;;;;;;0.80;0.38;;;13.50;99.90;;;;;;4972375;28;20465;-69
2021/09/04 08:17:22;;;;;;;1.27;0.45;;;13.60;99.90;;;;;;4972845;28;20129;-70
2021/09/04 08:19:49;;;;;;;3.80;0.60;;;13.70;99.90;;;;;;4971127;28;20089;-67
2021/09/04 08:22:16;;;;;;;1.60;0.60;;;13.70;99.90;;;;;;4972772;28;20066;-69
2021/09/04 08:24:42;;;;;;;1.48;0.40;;;13.70;99.90;;;;;;4972420;28;20462;-72
2021/09/04 08:27:09;;;;;;;1.85;0.45;;;13.70;99.90;;;;;;4972561;28;20138;-67
2021/09/04 08:29:36;;;;;;;1.10;0.30;;;13.70;99.90;;;;;;4972889;28;20074;-68
2021/09/04 08:32:04;;;;;;;1.90;0.30;;;13.70;99.90;;;;;;4969774;28;20538;-67
2021/09/04 08:34:31;;;;;;;2.92;0.80;;;13.50;99.90;;;;;;4972378;28;20173;-71
2021/09/04 08:36:58;;;;;;;1.40;0.80;;;13.60;99.90;;;;;;4972409;28;20063;-70
2021/09/04 08:39:25;;;;;;;1.52;0.35;;;13.60;99.90;;;;;;4972409;28;20521;-67
2021/09/04 08:41:51;;;;;;;2.17;0.50;;;13.70;99.90;;;;;;4971012;28;20047;-67
2021/09/04 08:44:20;;;;;;;1.40;0.45;;;13.70;99.90;;;;;;4972044;28;20058;-65
2021/09/04 08:46:49;;;;;;;0.77;0.47;;;13.70;99.90;;;;;;4972034;28;20512;-73
2021/09/04 08:49:18;;;;;;;1.45;0.70;;;13.70;99.90;;;;;;4972206;28;20066;-68
2021/09/04 08:51:45;;;;;;;1.13;0.50;;;13.70;99.90;;;;;;4970742;28;20413;-68
2021/09/04 08:54:13;;;;;;;1.55;0.55;;;13.70;99.90;;;;;;4972174;28;20070;-65
2021/09/04 08:56:40;;;;;;;0.45;0.28;;;13.70;99.90;;;;;;4971800;28;20057;-69
2021/09/04 08:59:07;;;;;;;2.22;0.60;;;13.70;99.90;;;;;;4972038;28;20085;-74
2021/09/04 09:01:44;;;;;;;1.20;0.40;;;13.80;99.90;;;;;;4972140;28;20441;-70
2021/09/04 09:04:17;;;;;;;0.45;0.40;;;13.80;99.90;;;;;;4951268;28;20051;-69
2021/09/04 09:06:45;;;;;;;3.25;0.50;;;13.80;99.90;;;;;;4952183;28;20047;-67
2021/09/04 09:09:25;;;;;;;3.03;0.30;;;13.70;99.90;;;;;;4952415;28;20186;-67
2021/09/04 09:11:54;;;;;;;2.58;0.50;;;13.80;99.90;;;;;;4950716;28;20110;-68
2021/09/04 09:14:23;;;;;;;0.60;0.60;;;13.80;99.90;;;;;;4952124;28;20442;-69
2021/09/04 09:17:00;;;;;;;1.38;1.08;;;13.80;99.90;;;;;;4952405;28;20514;-67
2021/09/04 09:19:38;;;;;;;0.68;0.40;;;13.80;99.90;;;;;;4952659;28;20047;-67
2021/09/04 09:22:16;;;;;;;0.73;0.50;;;13.80;99.90;;;;;;4950406;28;20359;-69
2021/09/04 09:24:43;;;;;;;0.68;0.40;;;13.80;99.90;;;;;;4952202;28;20046;-66
2021/09/04 09:27:13;;;;;;;0.50;0.40;;;13.80;99.90;;;;;;4952155;28;20164;-68
2021/09/04 09:29:47;;;;;;;0.43;0.30;;;13.80;99.90;;;;;;4952034;28;20055;-71
2021/09/04 09:32:14;;;;;;;1.58;0.32;;;13.90;99.90;;;;;;4950566;28;20070;-68
2021/09/04 09:34:43;;;;;;;0.65;0.30;;;14.00;99.90;;;;;;4952462;28;20063;-66
2021/09/04 09:37:13;;;;;;;2.83;1.23;;;13.90;99.90;;;;;;4951708;28;20216;-69
2021/09/04 09:39:42;;;;;;;0.70;0.60;;;13.90;99.90;;;;;;4951880;28;20085;-68
2021/09/04 09:42:11;;;;;;;2.80;0.70;;;13.90;99.90;;;;;;4950317;28;20098;-68
2021/09/04 09:44:40;;;;;;;0.87;0.60;;;13.90;99.90;;;;;;4951847;28;20074;-67
2021/09/04 09:47:09;;;;;;;1.83;0.60;;;13.90;99.90;;;;;;4951532;28;20501;-67
2021/09/04 09:49:37;;;;;;;4.78;1.40;;;13.90;99.90;;;;;;4951409;28;20497;-70
2021/09/04 09:52:09;;;;;;;0.45;0.43;;;13.90;99.90;;;;;;4950507;28;20047;-70
2021/09/04 09:54:36;;;;;;;2.63;0.38;;;13.90;99.90;;;;;;4951612;28;20043;-67
2021/09/04 09:57:08;;;;;;;1.15;0.40;;;13.90;99.90;;;;;;4951852;28;20071;-68
2021/09/04 09:59:36;;;;;;;1.02;0.38;;;14.00;99.90;;;;;;4951374;28;20051;-70
2021/09/04 10:02:06;;;;;;;1.38;0.50;;;14.00;99.90;;;;;;4949779;28;20097;-68
2021/09/04 10:04:36;;;;;;;0.60;0.10;;;14.10;99.90;;;;;;4951501;28;20052;-71
2021/09/04 10:07:05;;;;;;;0.52;0.40;;;14.00;99.90;;;;;;4951327;28;20071;-72
2021/09/04 10:09:32;;;;;;;0.88;0.55;;;14.10;99.90;;;;;;4951334;28;20070;-67
2021/09/04 10:11:59;;;;;;;1.10;0.45;;;14.10;99.90;;;;;;4949643;28;20103;-68
2021/09/04 10:14:26;;;;;;;3.20;0.75;;;14.20;99.90;;;;;;4950961;28;20088;-68
2021/09/04 10:16:59;;;;;;;0.50;0.30;;;14.20;99.90;;;;;;4951492;28;20051;-72
2021/09/04 10:19:31;;;;;;;0.88;0.40;;;14.20;99.90;;;;;;4951395;28;20391;-66
2021/09/04 10:22:01;;;;;;;2.30;0.30;;;14.20;99.90;;;;;;4949609;28;20047;-69
2021/09/04 10:24:54;;;;;;;0.65;0.43;;;14.30;99.90;;;;;;4951126;28;20126;-68
2021/09/04 10:27:31;;;;;;;0.70;0.40;;;14.30;99.90;;;;;;4951137;28;20430;-65
2021/09/04 10:29:58;;;;;;;0.85;0.60;;;14.40;99.90;;;;;;4950185;28;20106;-67
2021/09/04 10:32:26;;;;;;;2.28;0.60;;;14.30;99.90;;;;;;4950634;28;20102;-70
2021/09/04 10:35:05;;;;;;;0.73;0.30;;;14.30;99.90;;;;;;4951225;28;20056;-67
2021/09/04 10:37:43;;;;;;;0.50;0.30;;;14.30;99.90;;;;;;4951536;28;20051;-64
2021/09/04 10:40:12;;;;;;;1.77;0.80;;;14.40;99.90;;;;;;4949621;28;20043;-69
2021/09/04 10:42:44;;;;;;;6.43;0.98;;;14.30;99.90;;;;;;4951007;28;20051;-67
2021/09/04 10:45:16;;;;;;;1.17;0.50;;;14.40;99.90;;;;;;4951151;28;20131;-65
2021/09/04 10:47:51;;;;;;;0.73;0.57;;;14.30;99.90;;;;;;4949365;28;20043;-71
2021/09/04 10:50:25;;;;;;;1.92;0.50;;;14.30;99.90;;;;;;4951390;28;20067;-71
2021/09/04 10:53:02;;;;;;;1.25;0.57;;;14.20;99.90;;;;;;4951518;28;20101;-69
2021/09/04 10:55:34;;;;;;;1.20;0.80;;;14.40;99.90;;;;;;4951080;28;20055;-72
2021/09/04 10:58:08;;;;;;;2.03;0.50;;;14.30;99.90;;;;;;4950123;28;20043;-70
2021/09/04 11:00:36;;;;;;;0.40;0.40;;;14.30;99.90;;;;;;4951779;28;20414;-68
2021/09/04 11:03:06;;;;;;;0.73;0.50;;;14.40;99.90;;;;;;4951029;28;20138;-68
2021/09/04 11:05:36;;;;;;;1.45;0.63;;;14.40;99.90;;;;;;4951011;28;20051;-67
2021/09/04 11:08:27;;;;;;;1.48;0.73;;;14.40;99.90;;;;;;4949280;28;20155;-68
2021/09/04 11:11:12;;;;;;;0.65;0.30;;;14.50;99.90;;;;;;4951158;28;20062;-68
2021/09/04 11:13:48;;;;;;;0.52;0.40;;;14.60;99.90;;;;;;4951608;28;20059;-65
2021/09/04 11:16:24;;;;;;;0.50;0.28;;;14.50;99.90;;;;;;4955014;28;20158;-65
2021/09/04 11:18:52;;;;;;;1.80;0.90;;;14.60;99.90;;;;;;4954162;28;20077;-73
2021/09/04 11:21:19;;;;;;;1.02;0.90;;;14.50;99.90;;;;;;4954003;28;20071;-68
2021/09/04 11:23:46;;;;;;;1.67;0.47;;;14.60;99.90;;;;;;4952621;28;20134;-72
2021/09/04 11:26:13;;;;;;;0.90;0.47;;;14.70;99.90;;;;;;4954038;28;20075;-70
2021/09/04 11:28:40;;;;;;;0.38;0.10;;;14.70;99.90;;;;;;4954124;28;20071;-67
2021/09/04 11:31:07;;;;;;;0.43;0.28;;;14.90;99.90;;;;;;4953845;28;20070;-69
2021/09/04 11:33:34;;;;;;;1.42;0.60;;;14.80;99.90;;;;;;4954477;28;20138;-66
2021/09/04 11:36:01;;;;;;;2.47;0.52;;;14.70;99.90;;;;;;4952386;28;20079;-69
2021/09/04 11:38:28;;;;;;;2.55;0.55;;;14.60;99.90;;;;;;4953789;28;20059;-71
2021/09/04 11:40:55;;;;;;;2.38;0.40;;;14.60;99.90;;;;;;4953701;28;20083;-73
2021/09/04 11:43:25;;;;;;;1.73;0.60;;;14.70;99.90;;;;;;4954097;28;20069;-66
2021/09/04 11:46:03;;;;;;;1.75;1.20;;;14.90;99.90;;;;;;4952720;28;20051;-70
2021/09/04 11:48:31;;;;;;;1.33;0.32;;;14.90;99.90;;;;;;4954296;28;20051;-71
2021/09/04 11:51:07;;;;;;;0.22;0.22;;;14.70;99.90;;;;;;4954389;28;20067;-68
2021/09/04 11:53:34;;;;;;;1.35;0.38;;;14.50;99.90;;;;;;4954467;28;20591;-68
2021/09/04 11:56:14;;;;;;;0.22;0.10;;;14.50;99.90;;;;;;4952776;28;20593;-68
2021/09/04 11:58:41;;;;;;;1.05;0.40;;;14.50;99.90;;;;;;4954342;28;20110;-66
2021/09/04 12:01:09;;;;;;;0.75;0.30;;;14.50;99.90;;;;;;4953779;28;20139;-67
2021/09/04 12:03:36;;;;;;;0.30;0.30;;;14.60;99.90;;;;;;4954281;28;20055;-65
2021/09/04 12:06:10;;;;;;;0.43;0.30;;;14.60;99.90;;;;;;4952495;28;20498;-68
2021/09/04 12:08:37;;;;;;;1.55;0.20;;;14.60;99.90;;;;;;4968822;28;20213;-68
2021/09/04 12:11:06;;;;;;;1.67;0.57;;;14.70;99.90;;;;;;4954008;28;20079;-68
2021/09/04 12:13:36;;;;;;;0.57;0.20;;;14.80;99.90;;;;;;4953859;28;20047;-67
2021/09/04 12:16:04;;;;;;;3.00;0.22;;;14.70;99.90;;;;;;4952077;28;20081;-70
2021/09/04 12:18:47;;;;;;;7.40;0.50;;;14.40;99.90;;;;;;4953581;28;20127;-66
2021/09/04 12:21:28;;;;;;;0.70;0.30;;;14.20;99.90;;;;;;4953609;28;20071;-68
2021/09/04 12:23:58;;;;;;;1.08;0.35;;;14.30;99.90;;;;;;4951719;28;20070;-69
2021/09/04 12:26:25;;;;;;;0.90;0.50;;;14.30;99.90;;;;;;4953560;28;20384;-70
2021/09/04 12:29:05;;;;;;;2.65;1.00;;;14.40;99.90;;;;;;4953499;28;20620;-71
2021/09/04 12:31:32;;;;;;;0.55;0.30;;;14.40;99.90;;;;;;4953863;28;20071;-69
2021/09/04 12:34:01;;;;;;;0.60;0.35;;;14.50;99.90;;;;;;4952005;28;20073;-66
2021/09/04 12:36:28;;;;;;;0.70;0.63;;;14.50;99.90;;;;;;4953384;28;20047;-70
2021/09/04 12:38:57;;;;;;;0.40;0.38;;;14.40;99.90;;;;;;4953204;28;20062;-72
2021/09/04 12:41:33;;;;;;;1.73;0.40;;;14.40;99.90;;;;;;4953186;28;20131;-67
2021/09/04 12:44:08;;;;;;;1.60;0.52;;;14.40;99.90;;;;;;4951792;28;20547;-68
2021/09/04 12:46:49;;;;;;;1.52;0.20;;;14.50;99.90;;;;;;4953430;28;20047;-70
2021/09/04 12:49:22;;;;;;;0.65;0.32;;;14.60;99.90;;;;;;4953217;28;20051;-66
2021/09/04 12:52:22;;;;;;;0.63;0.32;;;14.50;99.90;;;;;;4951443;28;20135;-69
2021/09/04 12:54:52;;;;;;;1.27;0.47;;;14.60;99.90;;;;;;4952984;28;20051;-72
2021/09/04 12:57:29;;;;;;;0.57;0.50;;;14.70;99.90;;;;;;4953112;28;20054;-68